createdAt,value
2019-02-17T00:00:51.998Z,5.15
2019-02-17T00:03:19.900Z,5.09
2019-02-17T00:05:47.753Z,5.01
2019-02-17T00:08:15.807Z,4.96
2019-02-17T00:10:43.774Z,4.93
2019-02-17T00:13:11.742Z,4.91
2019-02-17T00:15:39.677Z,4.88
2019-02-17T00:18:07.519Z,4.84
2019-02-17T00:20:35.551Z,4.81
2019-02-17T00:23:03.442Z,4.78
2019-02-17T00:25:31.286Z,4.74
2019-02-17T00:27:59.205Z,4.71
2019-02-17T00:30:27.052Z,4.69
2019-02-17T00:32:55.002Z,4.67
2019-02-17T00:35:22.752Z,4.63
2019-02-17T00:37:50.503Z,4.60
2019-02-17T00:40:18.503Z,4.57
2019-02-17T00:42:46.441Z,4.54
2019-02-17T00:45:14.412Z,4.49
2019-02-17T00:47:52.616Z,4.45
2019-02-17T00:50:20.587Z,4.42
2019-02-17T00:52:48.459Z,4.41
2019-02-17T00:55:16.321Z,4.38
2019-02-17T00:57:44.112Z,4.34
2019-02-17T01:00:13.030Z,4.32
2019-02-17T01:02:41.003Z,4.31
2019-02-17T01:05:09.074Z,4.29
2019-02-17T01:07:37.712Z,4.26
2019-02-17T01:10:05.626Z,4.25
2019-02-17T01:12:33.532Z,4.21
2019-02-17T01:15:01.409Z,4.18
2019-02-17T01:17:29.536Z,4.16
2019-02-17T01:19:57.529Z,4.12
2019-02-17T01:22:25.458Z,4.09
2019-02-17T01:24:53.380Z,4.07
2019-02-17T01:27:21.596Z,4.03
2019-02-17T01:29:49.522Z,4.00
2019-02-17T01:32:17.366Z,3.97
2019-02-17T01:34:45.314Z,3.95
2019-02-17T01:37:13.119Z,3.93
2019-02-17T01:39:50.494Z,3.91
2019-02-17T01:42:18.373Z,3.88
2019-02-17T01:44:46.886Z,3.85
2019-02-17T01:47:15.088Z,3.82
2019-02-17T01:49:45.886Z,3.80
2019-02-17T01:52:13.911Z,3.76
2019-02-17T01:54:41.789Z,3.71
2019-02-17T01:57:09.710Z,3.70
2019-02-17T01:59:37.583Z,3.68
2019-02-17T02:02:05.493Z,3.64
2019-02-17T02:04:33.423Z,3.63
2019-02-17T02:07:01.340Z,3.61
2019-02-17T02:09:29.364Z,3.57
2019-02-17T02:11:57.352Z,3.54
2019-02-17T02:14:25.614Z,3.51
2019-02-17T02:16:53.470Z,3.48
2019-02-17T02:19:21.433Z,3.46
2019-02-17T02:21:49.313Z,3.43
2019-02-17T02:24:17.056Z,3.40
2019-02-17T02:26:44.963Z,3.38
2019-02-17T02:29:13.213Z,3.35
2019-02-17T02:31:41.170Z,3.34
2019-02-17T02:34:08.991Z,3.33
2019-02-17T02:36:36.749Z,3.29
2019-02-17T02:39:06.218Z,3.26
2019-02-17T02:41:35.224Z,3.24
2019-02-17T02:44:03.199Z,3.18
2019-02-17T02:46:31.006Z,3.16
2019-02-17T02:48:58.761Z,3.12
2019-02-17T02:51:26.598Z,3.10
2019-02-17T02:53:54.445Z,3.09
2019-02-17T02:56:23.468Z,3.08
2019-02-17T02:58:51.285Z,3.06
2019-02-17T03:01:19.101Z,3.05
2019-02-17T03:03:46.904Z,3.05
2019-02-17T03:06:35.126Z,3.01
2019-02-17T03:09:04.900Z,3.00
2019-02-17T03:11:32.666Z,2.94
2019-02-17T03:14:00.564Z,2.93
2019-02-17T03:16:28.469Z,2.92
2019-02-17T03:18:56.352Z,2.89
2019-02-17T03:21:24.233Z,2.86
2019-02-17T03:23:52.030Z,2.85
2019-02-17T03:26:20.158Z,2.84
2019-02-17T03:28:48.720Z,2.82
2019-02-17T03:31:16.707Z,2.80
2019-02-17T03:33:44.558Z,2.78
2019-02-17T03:36:12.410Z,2.75
2019-02-17T03:38:40.179Z,2.74
2019-02-17T03:41:08.015Z,2.73
2019-02-17T03:43:35.848Z,2.72
2019-02-17T03:46:04.715Z,2.70
2019-02-17T03:48:32.540Z,2.67
2019-02-17T03:51:00.786Z,2.66
2019-02-17T03:53:29.288Z,2.65
2019-02-17T03:55:58.973Z,2.63
2019-02-17T03:58:26.819Z,2.61
2019-02-17T04:00:54.630Z,2.60
2019-02-17T04:03:22.377Z,2.56
2019-02-17T04:05:50.401Z,2.54
2019-02-17T04:08:18.384Z,2.53
2019-02-17T04:10:46.364Z,2.51
2019-02-17T04:13:14.123Z,2.48
2019-02-17T04:15:42.094Z,2.47
2019-02-17T04:18:10.475Z,2.46
2019-02-17T04:20:39.217Z,2.44
2019-02-17T04:23:07.537Z,2.42
2019-02-17T04:25:35.410Z,2.41
2019-02-17T04:28:03.213Z,2.39
2019-02-17T04:30:31.070Z,2.37
2019-02-17T04:32:58.857Z,2.35
2019-02-17T04:35:26.697Z,2.35
2019-02-17T04:37:54.566Z,2.34
2019-02-17T04:40:22.489Z,2.30
2019-02-17T04:42:50.320Z,2.28
2019-02-17T04:45:18.122Z,2.28
2019-02-17T04:47:45.995Z,2.28
2019-02-17T04:50:13.782Z,2.27
2019-02-17T04:52:42.240Z,2.24
2019-02-17T04:55:10.267Z,2.23
2019-02-17T04:57:38.044Z,2.20
2019-02-17T05:00:06.278Z,2.18
2019-02-17T05:02:34.160Z,2.15
2019-02-17T05:05:02.041Z,2.13
2019-02-17T05:07:30.107Z,2.11
2019-02-17T05:09:57.934Z,2.09
2019-02-17T05:12:25.814Z,2.07
2019-02-17T05:14:53.585Z,2.05
2019-02-17T05:17:21.418Z,2.05
2019-02-17T05:19:49.251Z,2.04
2019-02-17T05:22:17.818Z,2.03
2019-02-17T05:24:45.733Z,2.00
2019-02-17T05:27:13.469Z,2.01
2019-02-17T05:29:41.234Z,1.99
2019-02-17T05:32:09.037Z,1.95
2019-02-17T05:34:37.000Z,1.94
2019-02-17T05:37:04.806Z,1.92
2019-02-17T05:39:33.261Z,1.91
2019-02-17T05:42:01.299Z,1.90
2019-02-17T05:44:29.141Z,1.87
2019-02-17T05:46:56.977Z,1.85
2019-02-17T05:49:24.755Z,1.84
2019-02-17T05:51:52.509Z,1.82
2019-02-17T05:54:20.350Z,1.80
2019-02-17T05:56:48.139Z,1.79
2019-02-17T05:59:16.061Z,1.77
2019-02-17T06:01:44.064Z,1.75
2019-02-17T06:04:11.838Z,1.73
2019-02-17T06:06:39.789Z,1.70
2019-02-17T06:09:07.512Z,1.70
2019-02-17T06:11:35.410Z,1.69
2019-02-17T06:14:03.319Z,1.69
2019-02-17T06:16:31.241Z,1.69
2019-02-17T06:18:58.968Z,1.69
2019-02-17T06:21:26.897Z,1.69
2019-02-17T06:23:54.733Z,1.71
2019-02-17T06:26:22.473Z,1.71
2019-02-17T06:28:50.299Z,1.70
2019-02-17T06:31:18.068Z,1.70
2019-02-17T06:33:45.952Z,1.66
2019-02-17T06:36:13.746Z,1.69
2019-02-17T06:38:41.600Z,1.73
2019-02-17T06:41:09.381Z,1.76
2019-02-17T06:43:37.120Z,1.79
2019-02-17T06:46:05.506Z,1.78
2019-02-17T06:48:33.347Z,1.80
2019-02-17T06:51:01.278Z,1.81
2019-02-17T06:53:29.026Z,1.81
2019-02-17T06:56:01.591Z,1.84
2019-02-17T06:58:29.360Z,1.91
2019-02-17T07:01:01.986Z,1.97
2019-02-17T07:03:29.873Z,2.02
2019-02-17T07:06:21.758Z,2.07
2019-02-17T07:08:49.532Z,2.12
2019-02-17T07:11:17.461Z,2.14
2019-02-17T07:13:45.200Z,2.18
2019-02-17T07:16:13.080Z,2.23
2019-02-17T07:18:41.535Z,2.29
2019-02-17T07:21:09.457Z,2.35
2019-02-17T07:23:37.430Z,2.42
2019-02-17T07:26:05.356Z,2.47
2019-02-17T07:28:33.206Z,2.53
2019-02-17T07:31:01.063Z,2.61
2019-02-17T07:33:28.792Z,2.66
2019-02-17T07:35:56.621Z,2.73
2019-02-17T07:38:24.399Z,2.80
2019-02-17T07:40:52.223Z,2.87
2019-02-17T07:43:20.012Z,2.91
2019-02-17T07:45:48.061Z,3.01
2019-02-17T07:48:15.823Z,3.10
2019-02-17T07:50:44.676Z,3.17
2019-02-17T07:53:12.514Z,3.29
2019-02-17T07:55:40.400Z,3.40
2019-02-17T07:58:08.300Z,3.53
2019-02-17T08:00:36.265Z,3.65
2019-02-17T08:03:11.305Z,3.74
2019-02-17T08:05:39.250Z,3.88
2019-02-17T08:08:07.281Z,4.00
2019-02-17T08:10:35.067Z,4.14
2019-02-17T08:13:02.955Z,4.32
2019-02-17T08:15:31.053Z,4.49
2019-02-17T08:17:58.809Z,4.65
2019-02-17T08:20:26.779Z,4.80
2019-02-17T08:22:54.807Z,4.94
2019-02-17T08:25:22.638Z,5.10
2019-02-17T08:27:50.476Z,5.26
2019-02-17T08:30:18.522Z,5.39
2019-02-17T08:32:46.362Z,5.54
2019-02-17T08:35:15.667Z,5.76
2019-02-17T08:37:43.590Z,5.94
2019-02-17T08:40:11.512Z,6.07
2019-02-17T08:42:39.579Z,6.27
2019-02-17T08:45:07.529Z,6.37
2019-02-17T08:47:35.382Z,6.51
2019-02-17T08:50:04.189Z,6.67
2019-02-17T08:52:31.991Z,6.80
2019-02-17T08:54:59.832Z,6.93
2019-02-17T08:57:27.666Z,7.13
2019-02-17T08:59:55.563Z,7.24
2019-02-17T09:02:23.430Z,7.37
2019-02-17T09:04:54.461Z,7.57
2019-02-17T09:07:22.292Z,7.77
2019-02-17T09:09:50.122Z,8.00
2019-02-17T09:12:18.070Z,8.36
2019-02-17T09:14:46.598Z,8.53
2019-02-17T09:17:14.697Z,8.65
2019-02-17T09:19:42.600Z,8.73
2019-02-17T09:22:10.465Z,8.83
2019-02-17T09:24:38.323Z,8.95
2019-02-17T09:27:07.798Z,9.04
2019-02-17T09:29:35.598Z,9.14
2019-02-17T09:32:03.573Z,9.21
2019-02-17T09:34:31.519Z,9.30
2019-02-17T09:36:59.975Z,9.41
2019-02-17T09:39:27.919Z,9.51
2019-02-17T09:41:55.900Z,9.63
2019-02-17T09:44:23.814Z,9.72
2019-02-17T09:46:51.862Z,9.79
2019-02-17T09:49:19.618Z,9.89
2019-02-17T09:51:47.572Z,9.97
2019-02-17T09:54:15.356Z,10.06
2019-02-17T09:56:43.185Z,10.15
2019-02-17T09:59:11.071Z,10.27
2019-02-17T10:01:38.858Z,10.31
2019-02-17T10:04:06.913Z,10.39
2019-02-17T10:06:34.725Z,10.45
2019-02-17T10:09:04.058Z,10.48
2019-02-17T10:11:31.899Z,10.58
2019-02-17T10:13:59.737Z,10.67
2019-02-17T10:16:27.987Z,10.73
2019-02-17T10:18:55.852Z,10.79
2019-02-17T10:21:25.287Z,10.85
2019-02-17T10:23:53.337Z,10.88
2019-02-17T10:26:21.126Z,11.02
2019-02-17T10:28:49.235Z,11.07
2019-02-17T10:31:17.118Z,11.15
2019-02-17T10:33:44.950Z,11.22
2019-02-17T10:36:12.845Z,11.31
2019-02-17T10:38:40.882Z,11.40
2019-02-17T10:41:08.669Z,11.48
2019-02-17T10:43:36.455Z,11.57
2019-02-17T10:46:06.109Z,11.67
2019-02-17T10:48:33.966Z,11.75
2019-02-17T10:51:01.915Z,11.83
2019-02-17T10:53:29.703Z,11.96
2019-02-17T10:55:57.651Z,12.03
2019-02-17T10:58:25.411Z,12.10
2019-02-17T11:00:53.350Z,12.27
2019-02-17T11:03:21.138Z,12.40
2019-02-17T11:05:49.799Z,12.53
2019-02-17T11:08:17.835Z,12.68
2019-02-17T11:10:46.005Z,12.80
2019-02-17T11:13:13.937Z,12.96
2019-02-17T11:15:55.737Z,13.09
2019-02-17T11:18:23.660Z,13.23
2019-02-17T11:20:51.506Z,13.44
2019-02-17T11:23:19.456Z,13.62
2019-02-17T11:25:47.286Z,13.94
2019-02-17T11:28:15.758Z,13.94
2019-02-17T11:30:43.799Z,14.12
2019-02-17T11:33:11.693Z,14.20
2019-02-17T11:35:39.673Z,14.31
2019-02-17T11:38:07.428Z,14.31
2019-02-17T11:40:35.266Z,14.49
2019-02-17T11:43:03.246Z,14.83
2019-02-17T11:45:31.100Z,14.83
2019-02-17T11:47:59.362Z,15.26
2019-02-17T11:50:27.142Z,15.26
2019-02-17T11:52:54.975Z,15.45
2019-02-17T11:55:23.091Z,15.81
2019-02-17T11:57:50.921Z,15.81
2019-02-17T12:00:19.857Z,15.95
2019-02-17T12:02:48.203Z,16.25
2019-02-17T12:05:16.812Z,16.45
2019-02-17T12:07:44.788Z,16.45
2019-02-17T12:10:12.722Z,16.59
2019-02-17T12:12:40.516Z,16.87
2019-02-17T12:15:09.225Z,16.87
2019-02-17T12:17:37.196Z,16.98
2019-02-17T12:20:27.443Z,17.18
2019-02-17T12:22:59.840Z,17.28
2019-02-17T12:25:37.934Z,17.28
2019-02-17T12:28:13.085Z,17.42
2019-02-17T12:30:42.343Z,17.79
2019-02-17T12:33:18.298Z,17.79
2019-02-17T12:35:39.876Z,17.93
2019-02-17T12:38:07.923Z,17.89
2019-02-17T12:40:35.866Z,18.02
2019-02-17T12:43:03.673Z,18.13
2019-02-17T12:45:31.436Z,18.34
2019-02-17T12:47:59.281Z,18.48
2019-02-17T12:50:27.149Z,18.52
2019-02-17T12:52:55.033Z,18.55
2019-02-17T12:55:22.817Z,18.65
2019-02-17T12:57:50.686Z,18.75
2019-02-17T13:00:18.813Z,18.75
2019-02-17T13:02:47.034Z,18.87
2019-02-17T13:05:15.135Z,18.97
2019-02-17T13:07:43.121Z,19.05
2019-02-17T13:10:11.073Z,19.18
2019-02-17T13:12:38.999Z,19.19
2019-02-17T13:15:08.483Z,19.27
2019-02-17T13:17:36.382Z,19.43
2019-02-17T13:20:05.269Z,19.43
2019-02-17T13:22:33.051Z,19.59
2019-02-17T13:25:01.024Z,19.69
2019-02-17T13:27:31.299Z,19.87
2019-02-17T13:29:59.388Z,20.12
2019-02-17T13:32:27.346Z,20.29
2019-02-17T13:34:55.265Z,20.43
2019-02-17T13:37:23.058Z,20.59
2019-02-17T13:39:51.015Z,20.74
2019-02-17T13:42:19.434Z,20.83
2019-02-17T13:44:47.193Z,20.95
2019-02-17T13:47:15.115Z,20.99
2019-02-17T13:49:42.919Z,21.08
2019-02-17T13:52:10.771Z,21.17
2019-02-17T13:54:38.757Z,21.27
2019-02-17T13:57:06.677Z,21.37
2019-02-17T13:59:34.604Z,21.50
2019-02-17T14:02:03.090Z,21.48
2019-02-17T14:04:31.247Z,21.55
2019-02-17T14:06:59.179Z,21.44
2019-02-17T14:09:27.095Z,21.44
2019-02-17T14:11:54.978Z,21.47
2019-02-17T14:14:22.917Z,21.58
2019-02-17T14:16:50.756Z,21.60
2019-02-17T14:19:18.715Z,21.55
2019-02-17T14:21:46.620Z,21.53
2019-02-17T14:24:14.397Z,21.56
2019-02-17T14:26:42.258Z,21.55
2019-02-17T14:29:10.745Z,21.36
2019-02-17T14:31:38.786Z,21.33
2019-02-17T14:34:06.535Z,21.06
2019-02-17T14:36:34.382Z,21.06
2019-02-17T14:39:03.977Z,20.98
2019-02-17T14:41:31.768Z,20.94
2019-02-17T14:43:59.796Z,21.01
2019-02-17T14:46:27.600Z,20.94
2019-02-17T14:48:55.457Z,21.04
2019-02-17T14:51:23.353Z,21.12
2019-02-17T14:53:51.122Z,21.07
2019-02-17T14:56:18.938Z,21.00
2019-02-17T14:58:46.831Z,21.04
2019-02-17T15:01:14.735Z,21.11
2019-02-17T15:03:42.630Z,21.13
2019-02-17T15:06:10.594Z,21.11
2019-02-17T15:08:38.504Z,21.11
2019-02-17T15:11:06.351Z,21.09
2019-02-17T15:13:34.322Z,21.15
2019-02-17T15:16:02.219Z,21.31
2019-02-17T15:18:30.134Z,21.46
2019-02-17T15:20:57.966Z,21.56
2019-02-17T15:23:25.791Z,21.64
2019-02-17T15:25:53.630Z,21.51
2019-02-17T15:28:22.056Z,21.24
2019-02-17T15:30:49.838Z,21.02
2019-02-17T15:33:17.633Z,20.74
2019-02-17T15:35:45.536Z,20.52
2019-02-17T15:38:13.405Z,20.33
2019-02-17T15:40:41.388Z,20.14
2019-02-17T15:43:09.323Z,19.99
2019-02-17T15:45:37.191Z,19.83
2019-02-17T15:48:05.105Z,19.66
2019-02-17T15:50:32.976Z,19.46
2019-02-17T15:53:00.833Z,19.29
2019-02-17T15:55:28.737Z,19.11
2019-02-17T15:57:56.741Z,18.97
2019-02-17T16:00:24.644Z,19.18
2019-02-17T16:02:52.430Z,19.49
2019-02-17T16:05:20.287Z,19.68
2019-02-17T16:07:48.132Z,19.83
2019-02-17T16:10:16.676Z,19.89
2019-02-17T16:12:45.879Z,19.87
2019-02-17T16:15:14.774Z,19.81
2019-02-17T16:17:42.764Z,19.79
2019-02-17T16:20:12.007Z,19.72
2019-02-17T16:22:39.937Z,19.60
2019-02-17T16:25:08.146Z,19.55
2019-02-17T16:27:36.200Z,19.49
2019-02-17T16:30:04.904Z,19.42
2019-02-17T16:32:32.657Z,19.40
2019-02-17T16:35:00.503Z,19.35
2019-02-17T16:37:40.084Z,19.29
2019-02-17T16:40:09.948Z,19.31
2019-02-17T16:42:37.809Z,19.35
2019-02-17T16:45:06.429Z,19.24
2019-02-17T16:47:34.342Z,19.19
2019-02-17T16:50:02.208Z,19.10
2019-02-17T16:52:30.130Z,19.05
2019-02-17T16:54:58.009Z,18.98
2019-02-17T16:57:25.977Z,18.90
2019-02-17T16:59:54.443Z,18.82
2019-02-17T17:02:22.234Z,18.75
2019-02-17T17:04:50.140Z,18.73
2019-02-17T17:07:18.090Z,18.68
2019-02-17T17:09:46.015Z,18.63
2019-02-17T17:12:13.855Z,18.59
2019-02-17T17:14:41.723Z,18.09
2019-02-17T17:17:09.665Z,17.54
2019-02-17T17:19:37.574Z,17.07
2019-02-17T17:22:05.681Z,16.67
2019-02-17T17:24:33.445Z,16.27
2019-02-17T17:27:01.677Z,15.76
2019-02-17T17:29:29.472Z,15.44
2019-02-17T17:31:57.422Z,15.25
2019-02-17T17:34:25.450Z,15.14
2019-02-17T17:36:53.348Z,14.99
2019-02-17T17:39:31.381Z,14.83
2019-02-17T17:41:59.377Z,14.74
2019-02-17T17:44:27.443Z,14.63
2019-02-17T17:46:55.240Z,14.50
2019-02-17T17:49:23.096Z,14.34
2019-02-17T17:51:51.021Z,14.24
2019-02-17T17:54:18.888Z,14.13
2019-02-17T17:56:47.836Z,14.02
2019-02-17T17:59:15.623Z,13.89
2019-02-17T18:01:43.838Z,13.78
2019-02-17T18:04:11.594Z,13.58
2019-02-17T18:06:39.378Z,13.47
2019-02-17T18:09:07.726Z,13.41
2019-02-17T18:11:35.596Z,13.30
2019-02-17T18:14:03.839Z,13.19
2019-02-17T18:16:31.631Z,13.07
2019-02-17T18:18:59.496Z,13.00
2019-02-17T18:21:27.249Z,12.90
2019-02-17T18:23:55.226Z,12.77
2019-02-17T18:26:23.371Z,12.65
2019-02-17T18:28:51.145Z,12.55
2019-02-17T18:31:19.207Z,12.48
2019-02-17T18:33:47.146Z,12.41
2019-02-17T18:36:15.053Z,12.35
2019-02-17T18:38:42.808Z,12.26
2019-02-17T18:41:13.245Z,12.16
2019-02-17T18:43:41.165Z,12.09
2019-02-17T18:46:09.948Z,12.00
2019-02-17T18:48:37.752Z,11.89
2019-02-17T18:51:05.653Z,11.81
2019-02-17T18:53:33.625Z,11.73
2019-02-17T18:56:02.193Z,11.66
2019-02-17T18:58:30.039Z,11.52
2019-02-17T19:00:57.852Z,11.45
2019-02-17T19:03:25.633Z,11.21
2019-02-17T19:05:53.595Z,11.21
2019-02-17T19:08:21.345Z,11.13
2019-02-17T19:10:49.632Z,11.06
2019-02-17T19:13:17.465Z,11.00
2019-02-17T19:15:46.190Z,10.89
2019-02-17T19:18:14.114Z,10.70
2019-02-17T19:20:42.103Z,10.70
2019-02-17T19:23:10.284Z,10.59
2019-02-17T19:25:38.183Z,10.48
2019-02-17T19:28:06.233Z,10.43
2019-02-17T19:30:34.165Z,10.31
2019-02-17T19:33:02.149Z,10.68
2019-02-17T19:35:30.126Z,11.43
2019-02-17T19:37:57.948Z,12.00
2019-02-17T19:40:26.116Z,12.58
2019-02-17T19:42:54.307Z,12.58
2019-02-17T19:45:22.618Z,12.11
2019-02-17T19:47:50.557Z,11.61
2019-02-17T19:50:18.424Z,11.23
2019-02-17T19:52:46.298Z,11.01
2019-02-17T19:55:14.449Z,10.79
2019-02-17T19:57:42.571Z,10.39
2019-02-17T20:00:11.824Z,10.27
2019-02-17T20:03:05.096Z,10.27
2019-02-17T20:05:35.614Z,10.16
2019-02-17T20:08:03.540Z,9.88
2019-02-17T20:10:31.430Z,9.88
2019-02-17T20:12:59.328Z,9.75
2019-02-17T20:15:29.714Z,9.61
2019-02-17T20:17:57.509Z,9.53
2019-02-17T20:20:25.489Z,9.45
2019-02-17T20:22:53.663Z,9.34
2019-02-17T20:25:21.665Z,9.25
2019-02-17T20:27:50.573Z,9.14
2019-02-17T20:30:18.471Z,9.09
2019-02-17T20:32:46.401Z,8.97
2019-02-17T20:35:14.500Z,8.83
2019-02-17T20:37:42.474Z,8.74
2019-02-17T20:40:10.923Z,8.68
2019-02-17T20:42:38.801Z,8.59
2019-02-17T20:45:07.330Z,8.51
2019-02-17T20:47:35.198Z,8.41
2019-02-17T20:50:03.702Z,8.35
2019-02-17T20:52:31.647Z,8.31
2019-02-17T20:54:59.505Z,8.24
2019-02-17T20:57:27.764Z,8.17
2019-02-17T20:59:55.606Z,8.22
2019-02-17T21:02:23.455Z,9.36
2019-02-17T21:04:51.339Z,10.12
2019-02-17T21:07:19.181Z,10.74
2019-02-17T21:09:47.108Z,11.26
2019-02-17T21:12:15.249Z,11.19
2019-02-17T21:14:43.365Z,10.62
2019-02-17T21:17:11.255Z,10.09
2019-02-17T21:19:39.097Z,9.62
2019-02-17T21:22:06.968Z,9.26
2019-02-17T21:24:34.859Z,8.92
2019-02-17T21:27:06.395Z,8.65
2019-02-17T21:29:34.505Z,8.45
2019-02-17T21:32:02.705Z,8.23
2019-02-17T21:34:30.651Z,8.05
2019-02-17T21:36:58.432Z,7.96
2019-02-17T21:39:26.276Z,7.88
2019-02-17T21:41:54.180Z,7.78
2019-02-17T21:44:22.114Z,7.67
2019-02-17T21:46:50.002Z,7.60
2019-02-17T21:49:18.019Z,7.46
2019-02-17T21:51:45.825Z,7.34
2019-02-17T21:54:14.049Z,7.25
2019-02-17T21:56:42.023Z,7.12
2019-02-17T21:59:09.844Z,7.05
2019-02-17T22:01:37.716Z,6.98
2019-02-17T22:04:05.653Z,6.93
2019-02-17T22:06:33.929Z,6.91
2019-02-17T22:09:01.938Z,7.96
2019-02-17T22:11:29.766Z,8.91
2019-02-17T22:13:57.526Z,9.63
2019-02-17T22:16:25.434Z,9.31
2019-02-17T22:18:53.298Z,8.81
2019-02-17T22:21:21.314Z,8.23
2019-02-17T22:23:49.114Z,7.78
2019-02-17T22:26:27.903Z,7.58
2019-02-17T22:28:55.821Z,7.38
2019-02-17T22:31:23.813Z,7.19
2019-02-17T22:33:51.844Z,7.03
2019-02-17T22:36:19.788Z,6.90
2019-02-17T22:38:47.566Z,6.71
2019-02-17T22:41:15.505Z,6.59
2019-02-17T22:43:43.387Z,6.43
2019-02-17T22:46:11.301Z,6.45
2019-02-17T22:48:39.106Z,6.50
2019-02-17T22:51:07.056Z,6.48
2019-02-17T22:53:43.399Z,6.45
2019-02-17T22:56:04.766Z,6.41
2019-02-17T22:58:32.630Z,6.36
2019-02-17T23:01:03.417Z,6.30
2019-02-17T23:03:31.859Z,6.23
2019-02-17T23:06:00.069Z,6.17
2019-02-17T23:08:27.941Z,6.01
2019-02-17T23:10:55.757Z,5.89
2019-02-17T23:13:23.755Z,5.80
2019-02-17T23:15:51.806Z,5.78
2019-02-17T23:18:19.691Z,5.76
2019-02-17T23:20:47.669Z,5.80
2019-02-17T23:23:15.798Z,5.85
2019-02-17T23:25:43.652Z,5.85
2019-02-17T23:28:13.873Z,5.85
2019-02-17T23:30:41.738Z,5.83
2019-02-17T23:33:09.698Z,5.81
2019-02-17T23:35:37.713Z,5.79
2019-02-17T23:38:05.499Z,5.76
2019-02-17T23:40:33.815Z,5.75
2019-02-17T23:43:01.688Z,5.74
2019-02-17T23:45:29.840Z,5.71
2019-02-17T23:47:57.719Z,5.66
2019-02-17T23:50:25.772Z,5.61
2019-02-17T23:52:54.699Z,5.51
2019-02-17T23:55:22.906Z,5.40
2019-02-17T23:57:50.982Z,5.38
